sensor_id;sensor_type;location;lat;lon;timestamp;P1;durP1;ratioP1;P2;durP2;ratioP2
63370;SDS011;49504;48.336;14.472;2022-10-31T00:04:52;3.50;;;1.50;;
63370;SDS011;49504;48.336;14.472;2022-10-31T00:09:53;3.30;;;1.50;;
63370;SDS011;49504;48.336;14.472;2022-10-31T00:14:54;3.28;;;1.42;;
63370;SDS011;49504;48.336;14.472;2022-10-31T00:19:56;3.00;;;1.48;;
63370;SDS011;49504;48.336;14.472;2022-10-31T00:24:57;3.08;;;1.30;;
63370;SDS011;49504;48.336;14.472;2022-10-31T00:29:58;4.15;;;1.70;;
63370;SDS011;49504;48.336;14.472;2022-10-31T00:35:00;3.38;;;1.60;;
63370;SDS011;49504;48.336;14.472;2022-10-31T00:40:01;3.25;;;1.25;;
63370;SDS011;49504;48.336;14.472;2022-10-31T00:49:15;2.80;;;1.20;;
63370;SDS011;49504;48.336;14.472;2022-10-31T00:54:16;3.03;;;1.50;;
63370;SDS011;49504;48.336;14.472;2022-10-31T00:59:17;3.10;;;1.40;;
63370;SDS011;49504;48.336;14.472;2022-10-31T01:04:19;3.30;;;1.40;;
63370;SDS011;49504;48.336;14.472;2022-10-31T01:09:20;3.03;;;1.13;;
63370;SDS011;49504;48.336;14.472;2022-10-31T01:14:21;3.88;;;1.83;;
63370;SDS011;49504;48.336;14.472;2022-10-31T01:19:23;3.38;;;1.50;;
63370;SDS011;49504;48.336;14.472;2022-10-31T01:24:24;3.22;;;1.27;;
63370;SDS011;49504;48.336;14.472;2022-10-31T01:29:25;3.78;;;1.55;;
63370;SDS011;49504;48.336;14.472;2022-10-31T01:34:28;2.97;;;1.20;;
63370;SDS011;49504;48.336;14.472;2022-10-31T01:39:29;3.95;;;1.70;;
63370;SDS011;49504;48.336;14.472;2022-10-31T01:50:02;2.67;;;1.10;;
63370;SDS011;49504;48.336;14.472;2022-10-31T01:55:12;3.67;;;1.48;;
63370;SDS011;49504;48.336;14.472;2022-10-31T02:00:16;3.50;;;1.60;;
63370;SDS011;49504;48.336;14.472;2022-10-31T02:05:21;3.53;;;1.40;;
63370;SDS011;49504;48.336;14.472;2022-10-31T02:10:26;2.92;;;1.13;;
63370;SDS011;49504;48.336;14.472;2022-10-31T02:18:14;3.50;;;1.50;;
63370;SDS011;49504;48.336;14.472;2022-10-31T02:23:33;3.03;;;1.13;;
63370;SDS011;49504;48.336;14.472;2022-10-31T02:29:05;3.40;;;1.30;;
63370;SDS011;49504;48.336;14.472;2022-10-31T02:34:32;3.97;;;1.50;;
63370;SDS011;49504;48.336;14.472;2022-10-31T02:39:39;2.88;;;1.30;;
63370;SDS011;49504;48.336;14.472;2022-10-31T02:44:49;3.47;;;1.20;;
63370;SDS011;49504;48.336;14.472;2022-10-31T02:49:59;3.05;;;1.40;;
63370;SDS011;49504;48.336;14.472;2022-10-31T02:58:44;2.80;;;1.17;;
63370;SDS011;49504;48.336;14.472;2022-10-31T03:09:03;3.25;;;1.30;;
63370;SDS011;49504;48.336;14.472;2022-10-31T03:15:13;2.97;;;1.20;;
63370;SDS011;49504;48.336;14.472;2022-10-31T03:20:20;2.95;;;1.25;;
63370;SDS011;49504;48.336;14.472;2022-10-31T03:25:24;2.85;;;1.00;;
63370;SDS011;49504;48.336;14.472;2022-10-31T03:30:27;3.40;;;1.27;;
63370;SDS011;49504;48.336;14.472;2022-10-31T03:35:29;2.70;;;1.00;;
63370;SDS011;49504;48.336;14.472;2022-10-31T03:40:33;3.10;;;1.20;;
63370;SDS011;49504;48.336;14.472;2022-10-31T03:45:45;2.90;;;1.23;;
63370;SDS011;49504;48.336;14.472;2022-10-31T03:50:49;2.72;;;1.20;;
63370;SDS011;49504;48.336;14.472;2022-10-31T03:57:49;3.42;;;1.20;;
63370;SDS011;49504;48.336;14.472;2022-10-31T04:02:57;3.97;;;1.20;;
63370;SDS011;49504;48.336;14.472;2022-10-31T04:08:01;3.05;;;1.15;;
63370;SDS011;49504;48.336;14.472;2022-10-31T04:13:08;3.10;;;1.20;;
63370;SDS011;49504;48.336;14.472;2022-10-31T04:18:13;3.03;;;1.20;;
63370;SDS011;49504;48.336;14.472;2022-10-31T04:23:17;2.72;;;1.10;;
63370;SDS011;49504;48.336;14.472;2022-10-31T04:28:21;2.80;;;1.30;;
63370;SDS011;49504;48.336;14.472;2022-10-31T04:33:23;3.10;;;1.10;;
63370;SDS011;49504;48.336;14.472;2022-10-31T04:38:24;2.72;;;1.02;;
63370;SDS011;49504;48.336;14.472;2022-10-31T04:43:26;2.97;;;1.25;;
63370;SDS011;49504;48.336;14.472;2022-10-31T04:48:27;3.33;;;1.33;;
63370;SDS011;49504;48.336;14.472;2022-10-31T04:53:28;2.63;;;1.05;;
63370;SDS011;49504;48.336;14.472;2022-10-31T04:58:31;2.65;;;0.82;;
63370;SDS011;49504;48.336;14.472;2022-10-31T05:08:06;2.83;;;0.98;;
63370;SDS011;49504;48.336;14.472;2022-10-31T05:13:07;2.72;;;0.90;;
63370;SDS011;49504;48.336;14.472;2022-10-31T05:18:09;2.58;;;1.27;;
63370;SDS011;49504;48.336;14.472;2022-10-31T05:23:11;2.80;;;1.30;;
63370;SDS011;49504;48.336;14.472;2022-10-31T05:28:12;2.75;;;1.27;;
63370;SDS011;49504;48.336;14.472;2022-10-31T05:33:13;2.97;;;1.20;;
63370;SDS011;49504;48.336;14.472;2022-10-31T05:38:16;3.38;;;1.25;;
63370;SDS011;49504;48.336;14.472;2022-10-31T05:43:18;3.13;;;1.30;;
63370;SDS011;49504;48.336;14.472;2022-10-31T05:48:19;3.17;;;1.42;;
63370;SDS011;49504;48.336;14.472;2022-10-31T05:53:21;4.30;;;1.20;;
63370;SDS011;49504;48.336;14.472;2022-10-31T06:03:10;3.05;;;1.13;;
63370;SDS011;49504;48.336;14.472;2022-10-31T06:12:55;3.30;;;1.20;;
63370;SDS011;49504;48.336;14.472;2022-10-31T06:17:57;5.18;;;1.45;;
63370;SDS011;49504;48.336;14.472;2022-10-31T06:23:00;2.67;;;1.20;;
63370;SDS011;49504;48.336;14.472;2022-10-31T06:28:03;2.97;;;1.27;;
63370;SDS011;49504;48.336;14.472;2022-10-31T06:33:05;3.83;;;1.48;;
63370;SDS011;49504;48.336;14.472;2022-10-31T06:38:06;2.92;;;1.10;;
63370;SDS011;49504;48.336;14.472;2022-10-31T06:43:08;3.25;;;1.50;;
63370;SDS011;49504;48.336;14.472;2022-10-31T06:48:09;3.33;;;1.38;;
63370;SDS011;49504;48.336;14.472;2022-10-31T06:53:10;3.05;;;1.10;;
63370;SDS011;49504;48.336;14.472;2022-10-31T06:58:13;2.78;;;1.30;;
63370;SDS011;49504;48.336;14.472;2022-10-31T07:06:07;2.75;;;1.08;;
63370;SDS011;49504;48.336;14.472;2022-10-31T07:11:09;3.28;;;1.40;;
63370;SDS011;49504;48.336;14.472;2022-10-31T07:16:09;2.83;;;1.15;;
63370;SDS011;49504;48.336;14.472;2022-10-31T07:21:12;3.83;;;1.38;;
63370;SDS011;49504;48.336;14.472;2022-10-31T07:26:13;2.90;;;1.20;;
63370;SDS011;49504;48.336;14.472;2022-10-31T07:31:33;3.67;;;1.52;;
63370;SDS011;49504;48.336;14.472;2022-10-31T07:36:34;3.08;;;1.40;;
63370;SDS011;49504;48.336;14.472;2022-10-31T07:41:35;3.42;;;1.38;;
63370;SDS011;49504;48.336;14.472;2022-10-31T07:46:38;3.22;;;1.45;;
63370;SDS011;49504;48.336;14.472;2022-10-31T07:51:39;2.97;;;1.25;;
63370;SDS011;49504;48.336;14.472;2022-10-31T07:56:40;3.55;;;1.60;;
63370;SDS011;49504;48.336;14.472;2022-10-31T08:01:42;3.00;;;1.50;;
63370;SDS011;49504;48.336;14.472;2022-10-31T08:06:43;3.40;;;1.70;;
63370;SDS011;49504;48.336;14.472;2022-10-31T08:11:44;2.88;;;1.15;;
63370;SDS011;49504;48.336;14.472;2022-10-31T08:20:24;3.10;;;1.13;;
63370;SDS011;49504;48.336;14.472;2022-10-31T08:25:25;3.53;;;1.63;;
63370;SDS011;49504;48.336;14.472;2022-10-31T08:30:29;4.90;;;1.75;;
63370;SDS011;49504;48.336;14.472;2022-10-31T08:35:33;3.40;;;1.42;;
63370;SDS011;49504;48.336;14.472;2022-10-31T08:40:34;3.55;;;1.70;;
63370;SDS011;49504;48.336;14.472;2022-10-31T08:45:35;5.25;;;2.03;;
63370;SDS011;49504;48.336;14.472;2022-10-31T08:50:37;4.35;;;1.90;;
63370;SDS011;49504;48.336;14.472;2022-10-31T08:55:39;14.32;;;3.45;;
63370;SDS011;49504;48.336;14.472;2022-10-31T09:01:16;7.85;;;3.10;;
63370;SDS011;49504;48.336;14.472;2022-10-31T09:06:17;5.35;;;2.20;;
63370;SDS011;49504;48.336;14.472;2022-10-31T09:11:18;4.30;;;1.80;;
63370;SDS011;49504;48.336;14.472;2022-10-31T09:21:04;5.25;;;2.00;;
63370;SDS011;49504;48.336;14.472;2022-10-31T09:26:06;6.32;;;1.80;;
63370;SDS011;49504;48.336;14.472;2022-10-31T09:31:08;5.43;;;2.08;;
63370;SDS011;49504;48.336;14.472;2022-10-31T09:36:10;5.28;;;2.67;;
63370;SDS011;49504;48.336;14.472;2022-10-31T09:41:14;7.28;;;3.65;;
63370;SDS011;49504;48.336;14.472;2022-10-31T09:46:22;6.20;;;4.60;;
63370;SDS011;49504;48.336;14.472;2022-10-31T09:51:36;13.80;;;9.77;;
63370;SDS011;49504;48.336;14.472;2022-10-31T10:04:31;5.97;;;3.70;;
63370;SDS011;49504;48.336;14.472;2022-10-31T10:23:26;271.48;;;116.65;;
63370;SDS011;49504;48.336;14.472;2022-10-31T10:28:41;524.25;;;330.25;;
63370;SDS011;49504;48.336;14.472;2022-10-31T10:33:47;307.80;;;156.93;;
63370;SDS011;49504;48.336;14.472;2022-10-31T10:39:02;159.23;;;83.72;;
63370;SDS011;49504;48.336;14.472;2022-10-31T10:44:09;134.38;;;71.28;;
63370;SDS011;49504;48.336;14.472;2022-10-31T10:52:02;86.72;;;45.20;;
63370;SDS011;49504;48.336;14.472;2022-10-31T10:57:18;55.35;;;31.13;;
63370;SDS011;49504;48.336;14.472;2022-10-31T11:02:45;52.88;;;26.75;;
63370;SDS011;49504;48.336;14.472;2022-10-31T11:07:48;49.40;;;27.55;;
63370;SDS011;49504;48.336;14.472;2022-10-31T11:13:03;44.63;;;23.60;;
63370;SDS011;49504;48.336;14.472;2022-10-31T11:18:19;42.58;;;23.30;;
63370;SDS011;49504;48.336;14.472;2022-10-31T11:23:25;41.90;;;22.02;;
63370;SDS011;49504;48.336;14.472;2022-10-31T11:28:28;36.30;;;19.55;;
63370;SDS011;49504;48.336;14.472;2022-10-31T11:33:31;31.65;;;17.58;;
63370;SDS011;49504;48.336;14.472;2022-10-31T11:40:33;32.20;;;16.63;;
63370;SDS011;49504;48.336;14.472;2022-10-31T11:48:47;30.02;;;15.05;;
63370;SDS011;49504;48.336;14.472;2022-10-31T11:53:54;26.20;;;13.15;;
63370;SDS011;49504;48.336;14.472;2022-10-31T12:03:48;23.75;;;12.25;;
63370;SDS011;49504;48.336;14.472;2022-10-31T12:09:09;21.13;;;11.32;;
63370;SDS011;49504;48.336;14.472;2022-10-31T12:14:25;18.55;;;10.20;;
63370;SDS011;49504;48.336;14.472;2022-10-31T12:19:38;17.42;;;10.40;;
63370;SDS011;49504;48.336;14.472;2022-10-31T12:26:54;15.25;;;9.63;;
63370;SDS011;49504;48.336;14.472;2022-10-31T12:34:35;17.08;;;9.38;;
63370;SDS011;49504;48.336;14.472;2022-10-31T12:40:19;16.52;;;9.90;;
63370;SDS011;49504;48.336;14.472;2022-10-31T12:48:45;14.50;;;9.40;;
63370;SDS011;49504;48.336;14.472;2022-10-31T12:54:14;13.50;;;9.13;;
63370;SDS011;49504;48.336;14.472;2022-10-31T12:59:50;15.20;;;9.55;;
63370;SDS011;49504;48.336;14.472;2022-10-31T13:04:58;12.45;;;8.55;;
63370;SDS011;49504;48.336;14.472;2022-10-31T13:10:05;11.50;;;8.48;;
63370;SDS011;49504;48.336;14.472;2022-10-31T13:15:18;13.98;;;9.07;;
63370;SDS011;49504;48.336;14.472;2022-10-31T13:20:24;11.95;;;8.25;;
63370;SDS011;49504;48.336;14.472;2022-10-31T13:27:56;11.95;;;8.60;;
63370;SDS011;49504;48.336;14.472;2022-10-31T13:33:01;11.37;;;7.73;;
63370;SDS011;49504;48.336;14.472;2022-10-31T13:39:47;11.57;;;7.45;;
63370;SDS011;49504;48.336;14.472;2022-10-31T13:45:08;10.38;;;7.82;;
63370;SDS011;49504;48.336;14.472;2022-10-31T13:50:19;10.82;;;7.10;;
63370;SDS011;49504;48.336;14.472;2022-10-31T13:55:37;10.85;;;6.95;;
63370;SDS011;49504;48.336;14.472;2022-10-31T14:00:41;9.50;;;6.75;;
63370;SDS011;49504;48.336;14.472;2022-10-31T14:05:43;10.38;;;7.22;;
63370;SDS011;49504;48.336;14.472;2022-10-31T14:10:54;10.60;;;6.55;;
63370;SDS011;49504;48.336;14.472;2022-10-31T14:15:57;9.48;;;6.80;;
63370;SDS011;49504;48.336;14.472;2022-10-31T14:21:13;12.60;;;6.77;;
63370;SDS011;49504;48.336;14.472;2022-10-31T14:26:34;9.57;;;5.70;;
63370;SDS011;49504;48.336;14.472;2022-10-31T14:31:36;9.43;;;6.70;;
63370;SDS011;49504;48.336;14.472;2022-10-31T14:36:40;8.13;;;6.15;;
63370;SDS011;49504;48.336;14.472;2022-10-31T14:42:06;8.80;;;5.78;;
63370;SDS011;49504;48.336;14.472;2022-10-31T14:47:28;9.02;;;6.13;;
63370;SDS011;49504;48.336;14.472;2022-10-31T14:52:36;8.45;;;5.85;;
63370;SDS011;49504;48.336;14.472;2022-10-31T14:57:42;8.70;;;6.22;;
63370;SDS011;49504;48.336;14.472;2022-10-31T15:07:26;9.52;;;6.00;;
63370;SDS011;49504;48.336;14.472;2022-10-31T15:12:29;7.90;;;5.65;;
63370;SDS011;49504;48.336;14.472;2022-10-31T15:19:49;8.27;;;5.60;;
63370;SDS011;49504;48.336;14.472;2022-10-31T15:28:23;7.13;;;4.40;;
63370;SDS011;49504;48.336;14.472;2022-10-31T15:33:28;6.15;;;4.32;;
63370;SDS011;49504;48.336;14.472;2022-10-31T15:42:32;7.82;;;5.82;;
63370;SDS011;49504;48.336;14.472;2022-10-31T15:47:35;10.00;;;4.90;;
63370;SDS011;49504;48.336;14.472;2022-10-31T15:52:38;7.53;;;4.75;;
63370;SDS011;49504;48.336;14.472;2022-10-31T15:57:44;7.72;;;5.22;;
63370;SDS011;49504;48.336;14.472;2022-10-31T16:02:47;6.47;;;4.95;;
63370;SDS011;49504;48.336;14.472;2022-10-31T16:07:49;7.78;;;5.00;;
63370;SDS011;49504;48.336;14.472;2022-10-31T16:14:44;7.40;;;4.88;;
63370;SDS011;49504;48.336;14.472;2022-10-31T16:23:00;10.13;;;5.90;;
63370;SDS011;49504;48.336;14.472;2022-10-31T16:28:02;7.97;;;6.35;;
63370;SDS011;49504;48.336;14.472;2022-10-31T16:33:20;8.57;;;6.28;;
63370;SDS011;49504;48.336;14.472;2022-10-31T16:38:26;8.20;;;5.85;;
63370;SDS011;49504;48.336;14.472;2022-10-31T16:43:27;7.07;;;5.32;;
63370;SDS011;49504;48.336;14.472;2022-10-31T16:48:28;7.82;;;5.35;;
63370;SDS011;49504;48.336;14.472;2022-10-31T16:53:30;8.07;;;5.35;;
63370;SDS011;49504;48.336;14.472;2022-10-31T16:58:31;6.40;;;4.95;;
63370;SDS011;49504;48.336;14.472;2022-10-31T17:03:34;6.15;;;4.05;;
63370;SDS011;49504;48.336;14.472;2022-10-31T17:08:37;7.05;;;5.18;;
63370;SDS011;49504;48.336;14.472;2022-10-31T17:13:38;6.82;;;4.93;;
63370;SDS011;49504;48.336;14.472;2022-10-31T17:18:39;7.68;;;5.30;;
63370;SDS011;49504;48.336;14.472;2022-10-31T17:23:41;8.85;;;5.82;;
63370;SDS011;49504;48.336;14.472;2022-10-31T17:33:17;7.97;;;5.55;;
63370;SDS011;49504;48.336;14.472;2022-10-31T17:38:17;6.65;;;4.32;;
63370;SDS011;49504;48.336;14.472;2022-10-31T17:43:18;7.95;;;5.22;;
63370;SDS011;49504;48.336;14.472;2022-10-31T17:48:21;5.95;;;4.38;;
63370;SDS011;49504;48.336;14.472;2022-10-31T17:53:22;6.35;;;4.28;;
63370;SDS011;49504;48.336;14.472;2022-10-31T17:58:23;7.30;;;4.60;;
63370;SDS011;49504;48.336;14.472;2022-10-31T18:03:25;6.05;;;4.53;;
63370;SDS011;49504;48.336;14.472;2022-10-31T18:08:27;6.05;;;4.13;;
63370;SDS011;49504;48.336;14.472;2022-10-31T18:13:29;5.50;;;3.90;;
63370;SDS011;49504;48.336;14.472;2022-10-31T18:25:33;6.05;;;4.30;;
63370;SDS011;49504;48.336;14.472;2022-10-31T18:30:37;6.28;;;4.20;;
63370;SDS011;49504;48.336;14.472;2022-10-31T18:35:39;6.10;;;3.97;;
63370;SDS011;49504;48.336;14.472;2022-10-31T18:40:42;6.15;;;4.00;;
63370;SDS011;49504;48.336;14.472;2022-10-31T18:45:43;5.68;;;3.85;;
63370;SDS011;49504;48.336;14.472;2022-10-31T18:50:44;5.60;;;3.60;;
63370;SDS011;49504;48.336;14.472;2022-10-31T18:55:46;6.43;;;3.95;;
63370;SDS011;49504;48.336;14.472;2022-10-31T19:00:47;6.72;;;3.60;;
63370;SDS011;49504;48.336;14.472;2022-10-31T19:05:48;5.28;;;3.63;;
63370;SDS011;49504;48.336;14.472;2022-10-31T19:10:50;6.10;;;4.03;;
63370;SDS011;49504;48.336;14.472;2022-10-31T19:15:51;4.97;;;3.72;;
63370;SDS011;49504;48.336;14.472;2022-10-31T19:20:52;5.90;;;3.78;;
63370;SDS011;49504;48.336;14.472;2022-10-31T19:25:57;6.00;;;3.70;;
63370;SDS011;49504;48.336;14.472;2022-10-31T19:30:58;5.05;;;3.38;;
63370;SDS011;49504;48.336;14.472;2022-10-31T19:36:00;4.95;;;3.30;;
63370;SDS011;49504;48.336;14.472;2022-10-31T19:45:12;5.10;;;3.60;;
63370;SDS011;49504;48.336;14.472;2022-10-31T19:50:13;5.93;;;3.88;;
63370;SDS011;49504;48.336;14.472;2022-10-31T19:55:14;5.03;;;3.17;;
63370;SDS011;49504;48.336;14.472;2022-10-31T20:00:17;5.20;;;3.28;;
63370;SDS011;49504;48.336;14.472;2022-10-31T20:05:18;5.53;;;3.67;;
63370;SDS011;49504;48.336;14.472;2022-10-31T20:10:18;4.97;;;3.05;;
63370;SDS011;49504;48.336;14.472;2022-10-31T20:15:21;5.28;;;3.08;;
63370;SDS011;49504;48.336;14.472;2022-10-31T20:20:22;5.13;;;3.42;;
63370;SDS011;49504;48.336;14.472;2022-10-31T20:25:23;4.63;;;2.95;;
63370;SDS011;49504;48.336;14.472;2022-10-31T20:30:25;6.32;;;3.78;;
63370;SDS011;49504;48.336;14.472;2022-10-31T20:35:26;5.10;;;2.88;;
63370;SDS011;49504;48.336;14.472;2022-10-31T20:40:27;4.90;;;3.33;;
63370;SDS011;49504;48.336;14.472;2022-10-31T20:45:30;4.45;;;2.70;;
63370;SDS011;49504;48.336;14.472;2022-10-31T20:50:31;5.82;;;3.03;;
63370;SDS011;49504;48.336;14.472;2022-10-31T20:55:32;4.90;;;2.85;;
63370;SDS011;49504;48.336;14.472;2022-10-31T21:00:35;4.60;;;2.80;;
63370;SDS011;49504;48.336;14.472;2022-10-31T21:05:36;4.85;;;2.90;;
63370;SDS011;49504;48.336;14.472;2022-10-31T21:10:37;4.05;;;2.50;;
63370;SDS011;49504;48.336;14.472;2022-10-31T21:15:40;6.45;;;2.72;;
63370;SDS011;49504;48.336;14.472;2022-10-31T21:20:41;5.05;;;3.08;;
63370;SDS011;49504;48.336;14.472;2022-10-31T21:25:43;5.68;;;3.00;;
63370;SDS011;49504;48.336;14.472;2022-10-31T21:35:59;4.28;;;2.35;;
63370;SDS011;49504;48.336;14.472;2022-10-31T21:41:00;4.43;;;2.83;;
63370;SDS011;49504;48.336;14.472;2022-10-31T21:46:03;4.47;;;2.03;;
63370;SDS011;49504;48.336;14.472;2022-10-31T21:54:20;6.55;;;2.90;;
63370;SDS011;49504;48.336;14.472;2022-10-31T21:59:21;4.55;;;2.83;;
63370;SDS011;49504;48.336;14.472;2022-10-31T22:04:23;4.93;;;2.38;;
63370;SDS011;49504;48.336;14.472;2022-10-31T22:09:25;5.75;;;2.78;;
63370;SDS011;49504;48.336;14.472;2022-10-31T22:14:26;4.60;;;2.30;;
63370;SDS011;49504;48.336;14.472;2022-10-31T22:19:27;4.88;;;2.40;;
63370;SDS011;49504;48.336;14.472;2022-10-31T22:24:29;5.45;;;2.60;;
63370;SDS011;49504;48.336;14.472;2022-10-31T22:29:30;4.82;;;3.10;;
63370;SDS011;49504;48.336;14.472;2022-10-31T22:34:31;4.90;;;2.50;;
63370;SDS011;49504;48.336;14.472;2022-10-31T22:39:33;4.00;;;2.10;;
63370;SDS011;49504;48.336;14.472;2022-10-31T22:44:34;4.72;;;2.50;;
63370;SDS011;49504;48.336;14.472;2022-10-31T22:49:35;4.32;;;2.20;;
63370;SDS011;49504;48.336;14.472;2022-10-31T22:54:37;4.75;;;2.33;;
63370;SDS011;49504;48.336;14.472;2022-10-31T22:59:38;4.35;;;2.42;;
63370;SDS011;49504;48.336;14.472;2022-10-31T23:04:39;4.75;;;2.67;;
63370;SDS011;49504;48.336;14.472;2022-10-31T23:10:07;4.20;;;2.30;;
63370;SDS011;49504;48.336;14.472;2022-10-31T23:15:09;4.40;;;2.33;;
63370;SDS011;49504;48.336;14.472;2022-10-31T23:20:10;4.78;;;2.63;;
63370;SDS011;49504;48.336;14.472;2022-10-31T23:25:12;3.72;;;2.30;;
63370;SDS011;49504;48.336;14.472;2022-10-31T23:30:13;4.05;;;2.20;;
63370;SDS011;49504;48.336;14.472;2022-10-31T23:35:14;4.03;;;2.22;;
63370;SDS011;49504;48.336;14.472;2022-10-31T23:40:16;3.78;;;2.00;;
63370;SDS011;49504;48.336;14.472;2022-10-31T23:45:17;4.30;;;2.53;;
63370;SDS011;49504;48.336;14.472;2022-10-31T23:51:34;4.20;;;2.15;;
63370;SDS011;49504;48.336;14.472;2022-10-31T23:56:35;3.60;;;2.25;;
